Time;durP1;ratioP1;P1;durP2;ratioP2;P2;SDS_P1;SDS_P2;PMS_P1;PMS_P2;Temp;Humidity;BMP_temperature;BMP_pressure;BME280_temperature;BME280_humidity;BME280_pressure;Samples;Min_cycle;Max_cycle;Signal;HPM_P1;HPM_P2
2021/12/31 09:42:47;;;;;;;3.13;1.33;;;;;;;17.73;57.53;101119.81;6006588;23;96953;-74
2021/12/31 09:45:15;;;;;;;2.95;1.20;;;;;;;17.99;56.33;101104.03;5999288;23;97206;-75
2021/12/31 09:47:42;;;;;;;3.53;1.33;;;;;;;18.19;55.91;101112.56;6000323;23;99488;-73
2021/12/31 09:50:09;;;;;;;4.82;1.35;;;;;;;18.17;55.13;101113.63;6001833;23;99219;-73
2021/12/31 09:52:36;;;;;;;2.03;1.33;;;;;;;18.02;55.94;101117.22;6001584;23;97106;-73
2021/12/31 09:55:04;;;;;;;4.10;1.23;;;;;;;17.99;55.97;101110.25;6003640;23;96888;-74
2021/12/31 09:57:30;;;;;;;4.63;1.00;;;;;;;18.10;55.66;101110.47;6001665;23;97738;-73
2021/12/31 10:00:02;;;;;;;2.45;1.20;;;;;;;18.07;55.36;101109.78;6002386;23;99757;-74
2021/12/31 10:02:32;;;;;;;3.38;1.10;;;;;;;18.09;55.91;101110.56;6002123;23;97526;-73
2021/12/31 10:05:00;;;;;;;6.88;1.30;;;;;;;18.38;54.38;101108.78;6002428;23;96990;-74
2021/12/31 10:07:29;;;;;;;3.15;0.98;;;;;;;18.18;54.87;101107.34;6001915;23;98903;-74
2021/12/31 10:10:08;;;;;;;3.85;1.50;;;;;;;17.87;56.01;101100.28;6002823;23;99398;-73
2021/12/31 10:12:45;;;;;;;2.90;1.00;;;;;;;18.00;55.37;101111.09;6002026;23;96772;-74
2021/12/31 10:15:14;;;;;;;4.80;1.70;;;;;;;18.19;54.73;101104.53;6002886;23;96790;-74
2021/12/31 10:17:40;;;;;;;3.28;1.20;;;;;;;18.20;55.10;101102.72;6002171;23;99225;-74
2021/12/31 10:20:07;;;;;;;3.80;1.27;;;;;;;18.21;54.43;101094.63;6002413;23;99027;-73
2021/12/31 10:22:34;;;;;;;2.33;0.90;;;;;;;18.05;55.19;101098.34;6004086;23;96772;-74
2021/12/31 10:25:00;;;;;;;4.43;1.25;;;;;;;18.15;54.51;101094.13;6003421;23;96730;-74
2021/12/31 10:27:29;;;;;;;3.25;1.20;;;;;;;18.27;54.28;101098.72;6003474;23;99842;-74
2021/12/31 10:29:56;;;;;;;4.53;1.48;;;;;;;17.97;55.22;101104.16;6002121;23;98041;-74
2021/12/31 10:32:27;;;;;;;1.63;1.13;;;;;;;17.95;55.15;101111.41;6000663;23;96893;-74
2021/12/31 10:34:54;;;;;;;3.75;1.02;;;;;;;17.88;55.35;101099.34;6007838;23;96670;-74
2021/12/31 10:37:25;;;;;;;1.98;0.95;;;;;;;18.09;55.13;101102.53;6017487;23;97841;-74
2021/12/31 10:39:57;;;;;;;3.10;1.10;;;;;;;18.02;54.84;101102.06;6014832;23;99734;-73
2021/12/31 10:42:28;;;;;;;2.47;0.98;;;;;;;17.87;55.11;101097.63;6010142;23;96655;-73
2021/12/31 10:44:57;;;;;;;4.13;1.10;;;;;;;17.92;55.31;101092.84;6004311;23;96617;-73
2021/12/31 10:47:29;;;;;;;1.85;1.20;;;;;;;17.90;54.88;101092.97;6006585;23;99307;-74
2021/12/31 10:50:16;;;;;;;2.40;1.00;;;;;;;18.14;54.58;101089.75;6006118;23;99349;-75
2021/12/31 10:52:56;;;;;;;2.67;0.90;;;;;;;18.32;54.02;101094.81;6003148;23;96983;-76
2021/12/31 10:55:26;;;;;;;2.92;0.98;;;;;;;18.13;54.40;101088.00;6008105;23;97425;-74
2021/12/31 10:57:57;;;;;;;1.92;0.93;;;;;;;18.26;54.00;101088.97;6015796;23;99227;-74
2021/12/31 11:00:25;;;;;;;3.60;1.15;;;;;;;18.33;53.68;101085.84;6012458;23;97774;-72
2021/12/31 11:02:53;;;;;;;2.15;0.88;;;;;;;18.21;53.71;101086.59;6011784;23;97245;-75
2021/12/31 11:05:21;;;;;;;3.17;0.73;;;;;;;18.14;54.23;101073.69;6021577;23;96802;-74
2021/12/31 11:07:48;;;;;;;2.83;0.90;;;;;;;18.10;54.07;101078.38;6023690;23;98446;-73
2021/12/31 11:10:15;;;;;;;4.70;1.10;;;;;;;18.29;53.47;101084.31;6024449;23;99359;-74
2021/12/31 11:12:47;;;;;;;1.50;1.10;;;;;;;18.42;53.11;101076.38;6023406;23;96494;-73
2021/12/31 11:15:15;;;;;;;6.15;1.15;;;;;;;18.47;53.05;101079.63;6022759;23;97021;-73
2021/12/31 11:17:41;;;;;;;1.88;0.90;;;;;;;18.31;53.15;101062.81;6008600;23;98309;-74
2021/12/31 11:20:11;;;;;;;1.80;0.75;;;;;;;17.97;54.13;101069.41;6007774;23;99560;-75
2021/12/31 11:22:38;;;;;;;4.15;1.17;;;;;;;18.31;53.54;101063.66;6004552;23;96640;-74
2021/12/31 11:25:22;;;;;;;3.17;0.88;;;;;;;18.15;53.86;101064.72;6003221;23;97554;-73
2021/12/31 11:27:51;;;;;;;1.30;0.90;;;;;;;18.13;53.85;101062.13;6004017;23;99095;-75
2021/12/31 11:30:30;;;;;;;3.80;0.77;;;;;;;17.95;54.52;101060.59;6003245;23;99127;-74
2021/12/31 11:32:59;;;;;;;2.83;0.80;;;;;;;18.01;54.33;101056.69;6002646;23;96724;-73
2021/12/31 11:35:33;;;;;;;3.30;0.95;;;;;;;18.03;53.87;101054.78;6003795;23;96874;-73
2021/12/31 11:38:00;;;;;;;3.65;0.85;;;;;;;17.92;54.51;101058.09;6004658;23;99046;-73
2021/12/31 11:40:28;;;;;;;2.55;1.00;;;;;;;18.14;53.86;101058.50;6003637;23;98932;-73
2021/12/31 11:43:14;;;;;;;2.72;0.80;;;;;;;17.81;54.63;101047.22;6003276;23;96687;-73
2021/12/31 11:45:40;;;;;;;3.45;0.80;;;;;;;17.64;55.03;101052.72;6003338;23;97443;-72
2021/12/31 11:48:54;;;;;;;2.67;0.90;;;;;;;18.06;54.37;101054.56;6007063;23;99219;-72
2021/12/31 11:51:26;;;;;;;2.03;1.08;;;;;;;17.91;54.65;101053.72;6002918;23;99468;-75
2021/12/31 11:54:18;;;;;;;3.63;0.80;;;;;;;17.95;54.51;101044.56;6003649;23;97106;-74
2021/12/31 11:56:53;;;;;;;7.95;1.02;;;;;;;18.09;54.30;101041.03;6002979;23;97058;-74
2021/12/31 11:59:37;;;;;;;1.95;0.85;;;;;;;17.92;54.43;101053.59;6003139;23;99130;-74
2021/12/31 12:02:09;;;;;;;5.90;1.02;;;;;;;17.76;55.44;101055.50;6003294;23;98840;-74
2021/12/31 12:04:37;;;;;;;1.80;0.80;;;;;;;17.75;55.09;101047.56;6003689;23;96672;-74
2021/12/31 12:07:07;;;;;;;3.53;1.20;;;;;;;18.03;54.49;101038.75;6003565;23;97119;-73
2021/12/31 12:10:09;;;;;;;2.08;0.93;;;;;;;18.01;54.62;101029.94;6002893;23;99352;-72
2021/12/31 12:12:37;;;;;;;2.88;0.98;;;;;;;17.89;54.75;101019.06;6003594;23;99359;-73
2021/12/31 12:15:04;;;;;;;1.67;0.60;;;;;;;17.95;54.65;101025.84;6003928;23;97001;-74
2021/12/31 12:17:43;;;;;;;2.55;1.33;;;;;;;17.97;54.97;101023.94;6004134;23;96823;-73
2021/12/31 12:20:13;;;;;;;1.17;0.70;;;;;;;18.18;54.09;101022.59;6004082;23;99121;-73
2021/12/31 12:22:50;;;;;;;2.60;0.90;;;;;;;17.84;54.93;101014.97;6003451;23;98856;-73
2021/12/31 12:25:18;;;;;;;3.40;1.40;;;;;;;18.06;54.02;101019.81;6004223;23;96697;-75
2021/12/31 12:27:46;;;;;;;3.35;1.33;;;;;;;17.83;55.58;101005.22;6004627;23;96776;-74
2021/12/31 12:30:14;;;;;;;2.05;0.70;;;;;;;17.94;54.49;101018.78;6003799;23;98999;-73
2021/12/31 12:32:53;;;;;;;3.00;0.85;;;;;;;17.99;54.02;101003.28;6003458;23;99374;-73
2021/12/31 12:35:22;;;;;;;3.10;0.82;;;;;;;18.19;54.13;101000.22;6003400;23;96703;-73
2021/12/31 12:37:57;;;;;;;4.13;1.40;;;;;;;18.26;53.37;100998.03;6003811;23;96903;-73
2021/12/31 12:40:36;;;;;;;1.55;0.85;;;;;;;18.25;53.20;100997.16;6002463;23;102902;-73
2021/12/31 12:43:04;;;;;;;3.97;1.00;;;;;;;18.15;53.97;101003.22;6002531;23;99651;-73
2021/12/31 12:45:30;;;;;;;3.10;0.93;;;;;;;18.37;53.29;101000.91;6003664;23;97031;-74
2021/12/31 12:47:57;;;;;;;1.98;0.75;;;;;;;17.92;53.77;100994.78;6005984;23;97512;-72
2021/12/31 12:50:24;;;;;;;3.65;0.90;;;;;;;17.98;53.50;101001.59;6003441;23;99239;-73
2021/12/31 12:52:56;;;;;;;1.70;0.80;;;;;;;18.09;53.27;101012.47;6003243;23;98922;-73
2021/12/31 12:55:22;;;;;;;4.38;1.05;;;;;;;18.06;53.21;101011.78;6003054;23;97171;-74
2021/12/31 12:57:53;;;;;;;1.95;0.90;;;;;;;17.90;53.94;101012.75;6002217;23;96849;-74
2021/12/31 13:00:31;;;;;;;5.35;0.80;;;;;;;17.90;54.09;101009.22;6003284;23;99546;-74
2021/12/31 13:03:04;;;;;;;5.63;1.30;;;;;;;18.10;53.31;101008.00;6002382;23;99255;-73
2021/12/31 13:05:31;;;;;;;1.35;0.90;;;;;;;17.88;54.17;101003.09;6001549;23;97165;-74
2021/12/31 13:07:58;;;;;;;3.65;1.00;;;;;;;18.10;53.39;100997.28;6002195;23;97402;-73
2021/12/31 13:10:26;;;;;;;3.58;1.00;;;;;;;17.97;53.56;101005.22;6002386;23;99009;-73
2021/12/31 13:12:54;;;;;;;3.38;1.00;;;;;;;17.90;54.10;101002.06;6003055;23;97556;-72
2021/12/31 13:15:21;;;;;;;3.63;0.98;;;;;;;18.29;52.92;100992.50;6002402;23;96760;-72
2021/12/31 13:17:56;;;;;;;1.75;1.00;;;;;;;18.35;52.40;100989.44;6004161;23;97245;-73
2021/12/31 13:20:26;;;;;;;2.05;1.40;;;;;;;17.80;54.21;100998.22;6004181;23;102157;-73
2021/12/31 13:22:56;;;;;;;2.95;1.00;;;;;;;18.16;53.06;100991.56;6003612;23;98825;-72
2021/12/31 13:25:40;;;;;;;2.30;0.80;;;;;;;17.97;53.80;100996.34;6002047;23;96738;-72
2021/12/31 13:28:13;;;;;;;3.55;0.95;;;;;;;18.00;53.87;100990.78;6005102;23;97183;-73
2021/12/31 13:30:48;;;;;;;2.35;0.90;;;;;;;18.25;53.10;100985.59;6004082;23;99024;-72
2021/12/31 13:33:23;;;;;;;2.08;0.90;;;;;;;18.32;52.52;100987.81;6006214;23;99257;-70
2021/12/31 13:36:09;;;;;;;2.05;0.65;;;;;;;18.39;52.89;100992.75;6010357;23;96565;-73
2021/12/31 13:39:05;;;;;;;2.92;1.15;;;;;;;18.33;52.81;100983.31;6006677;23;96523;-74
2021/12/31 13:41:36;;;;;;;1.48;1.00;;;;;;;17.75;54.65;100986.97;6012356;23;99400;-74
2021/12/31 13:44:04;;;;;;;2.72;1.00;;;;;;;17.88;54.17;100987.06;6001672;23;100129;-73
2021/12/31 13:46:33;;;;;;;1.25;0.63;;;;;;;18.07;53.35;100984.09;6003920;23;97010;-74
2021/12/31 13:49:04;;;;;;;2.95;1.25;;;;;;;18.16;53.33;100986.22;6002743;23;96768;-74
2021/12/31 13:51:32;;;;;;;2.30;0.80;;;;;;;18.08;53.03;100993.84;6002464;23;99602;-73
2021/12/31 13:53:58;;;;;;;1.83;0.88;;;;;;;18.09;53.11;100996.44;6001603;23;99286;-74
2021/12/31 13:56:34;;;;;;;2.67;0.88;;;;;;;18.06;52.89;100982.38;6003174;23;97140;-73
2021/12/31 13:59:25;;;;;;;3.25;0.98;;;;;;;17.90;52.95;100983.34;6001485;23;96789;-73
2021/12/31 14:02:09;;;;;;;1.98;1.10;;;;;;;18.03;52.83;100979.91;6002536;23;99786;-73
2021/12/31 14:05:11;;;;;;;2.28;0.95;;;;;;;18.02;53.23;100979.06;6003069;23;96985;-74
2021/12/31 14:07:42;;;;;;;1.13;0.80;;;;;;;18.13;53.00;100981.91;6002889;23;96599;-73
2021/12/31 14:10:11;;;;;;;1.52;0.88;;;;;;;18.05;53.06;100978.03;6004016;23;97291;-74
2021/12/31 14:12:45;;;;;;;4.13;0.93;;;;;;;18.26;52.25;100960.59;6002989;23;99151;-74
2021/12/31 14:15:12;;;;;;;4.70;0.85;;;;;;;18.29;52.36;100969.28;6002382;23;99424;-75
2021/12/31 14:17:38;;;;;;;4.25;1.27;;;;;;;17.64;53.69;100978.75;6004619;23;96987;-75
2021/12/31 14:20:06;;;;;;;2.40;0.90;;;;;;;18.09;53.32;100963.47;6005961;23;96795;-74
2021/12/31 14:22:35;;;;;;;2.70;1.35;;;;;;;18.05;52.86;100962.81;6007981;23;99052;-73
2021/12/31 14:25:02;;;;;;;2.17;0.88;;;;;;;18.16;52.51;100959.47;6008215;23;99925;-74
2021/12/31 14:27:28;;;;;;;2.38;0.93;;;;;;;18.03;53.47;100953.19;6007837;23;96967;-73
2021/12/31 14:29:55;;;;;;;2.92;0.80;;;;;;;18.03;52.93;100959.38;6005159;23;97711;-74
2021/12/31 14:32:21;;;;;;;1.83;1.20;;;;;;;18.02;52.41;100960.34;6005503;23;97737;-75
2021/12/31 14:34:48;;;;;;;2.05;0.90;;;;;;;18.05;52.89;100957.44;6008267;23;99528;-73
2021/12/31 14:37:14;;;;;;;2.45;1.10;;;;;;;18.13;52.85;100954.31;6006786;23;96670;-73
2021/12/31 14:39:51;;;;;;;3.33;1.15;;;;;;;18.15;52.67;100952.41;6008024;23;96798;-72
2021/12/31 14:42:20;;;;;;;1.25;1.00;;;;;;;18.07;52.66;100957.38;6005940;23;99246;-74
2021/12/31 14:44:47;;;;;;;3.58;1.10;;;;;;;18.26;52.07;100958.78;6006552;23;99028;-74
2021/12/31 14:47:13;;;;;;;1.73;1.00;;;;;;;18.17;51.95;100958.53;6007332;23;97191;-74
2021/12/31 14:49:39;;;;;;;4.13;1.00;;;;;;;17.99;53.17;100946.28;6010474;23;97277;-74
2021/12/31 14:52:07;;;;;;;2.53;0.77;;;;;;;18.06;52.90;100947.63;6008299;23;98899;-74
2021/12/31 14:54:34;;;;;;;2.53;0.70;;;;;;;18.10;52.33;100954.50;6005987;23;98952;-72
2021/12/31 14:57:02;;;;;;;3.90;1.40;;;;;;;17.85;53.17;100945.34;6007566;23;97167;-72
2021/12/31 14:59:30;;;;;;;4.60;1.30;;;;;;;17.87;53.11;100943.44;6010455;23;97011;-74
2021/12/31 15:01:57;;;;;;;1.40;0.93;;;;;;;18.05;52.48;100948.59;6010513;23;99052;-72
2021/12/31 15:04:25;;;;;;;2.00;1.08;;;;;;;18.24;52.10;100951.81;6018645;23;98824;-74
2021/12/31 15:06:51;;;;;;;1.73;0.90;;;;;;;17.83;52.80;100949.06;6018214;23;97054;-74
2021/12/31 15:09:17;;;;;;;3.67;0.82;;;;;;;18.01;52.63;100947.91;6022844;23;96554;-74
2021/12/31 15:11:44;;;;;;;1.70;0.80;;;;;;;17.90;53.00;100942.41;6021185;23;98411;-73
2021/12/31 15:14:11;;;;;;;1.75;1.10;;;;;;;18.10;52.52;100951.84;6020981;23;98453;-74
2021/12/31 15:16:38;;;;;;;1.85;0.80;;;;;;;18.19;52.17;100959.25;6021368;23;96675;-74
2021/12/31 15:19:06;;;;;;;3.03;0.95;;;;;;;17.85;52.79;100961.38;6010203;23;96713;-74
2021/12/31 15:21:33;;;;;;;3.83;1.30;;;;;;;18.03;52.54;100959.38;6005491;23;98129;-75
2021/12/31 15:23:59;;;;;;;1.75;0.95;;;;;;;18.24;52.04;100951.81;6006686;23;98125;-74
2021/12/31 15:26:25;;;;;;;2.58;1.00;;;;;;;18.32;51.70;100955.69;6008094;23;96701;-72
2021/12/31 15:28:52;;;;;;;2.00;0.90;;;;;;;18.17;52.31;100950.50;6004615;23;97482;-74
2021/12/31 15:31:20;;;;;;;3.75;1.00;;;;;;;18.31;51.26;100951.31;6005412;23;99578;-73
2021/12/31 15:33:47;;;;;;;12.20;1.17;;;;;;;18.31;51.48;100959.31;6003235;23;98917;-74
2021/12/31 15:36:20;;;;;;;2.53;1.25;;;;;;;18.18;51.65;100957.56;6005081;23;96738;-74
2021/12/31 15:38:47;;;;;;;3.05;1.10;;;;;;;18.34;52.19;100955.59;6004860;23;97031;-74
2021/12/31 15:41:14;;;;;;;2.90;1.13;;;;;;;18.00;53.09;100956.91;6005264;23;99435;-72
2021/12/31 15:43:50;;;;;;;1.50;0.88;;;;;;;18.16;52.85;100951.44;5997693;23;97642;-77
2021/12/31 16:05:35;;;;;;;2.63;1.00;;;;;;;17.67;54.71;100962.53;5962947;23;99061;-77
2021/12/31 16:09:01;;;;;;;;;;;;;;;;;;;;;
2021/12/31 16:15:38;;;;;;;;;;;;;;;;;;;;;
2021/12/31 16:48:53;;;;;;;4.35;2.03;;;;;;;17.27;60.90;101011.25;5909493;23;100542;-78
2021/12/31 16:51:51;;;;;;;9.20;1.70;;;;;;;17.39;60.94;101014.06;6003499;23;97038;-77
2021/12/31 16:55:08;;;;;;;;;;;;;;;;;;;;;
2021/12/31 16:58:38;;;;;;;9.00;2.72;;;;;;;17.05;61.44;101012.53;5823944;24;128556;-77
2021/12/31 17:01:12;;;;;;;6.38;2.25;;;;;;;16.86;62.90;101013.69;5975359;23;98884;-77
2021/12/31 17:12:39;;;;;;;;;;;;;;;;;;;;;
2021/12/31 17:15:42;;;;;;;;;;;;;;;;;;;;;
2021/12/31 17:18:31;;;;;;;;;;;;;;;;;;;;;
2021/12/31 17:21:01;;;;;;;6.32;2.47;;;;;;;17.14;62.54;101011.09;6002588;23;126702;-77
2021/12/31 17:23:52;;;;;;;5.38;2.45;;;;;;;16.93;62.41;101013.25;6004034;23;99112;-78
